Time;durP1;ratioP1;P1;durP2;ratioP2;P2;SDS_P1;SDS_P2;PMS_P1;PMS_P2;Temp;Humidity;BMP_temperature;BMP_pressure;BME280_temperature;BME280_humidity;BME280_pressure;Samples;Min_cycle;Max_cycle;Signal;HPM_P1;HPM_P2
2023/12/10 00:00:29;;;;;;;19.27;2.83;;;7.20;99.90;;;;;;5070253;28;20045;-83
2023/12/10 00:03:19;;;;;;;14.60;3.63;;;7.10;99.90;;;;;;5061103;28;20083;-81
2023/12/10 00:06:08;;;;;;;19.17;3.83;;;7.00;99.90;;;;;;5060089;28;20048;-84
2023/12/10 00:09:03;;;;;;;18.80;3.83;;;6.90;99.90;;;;;;5077227;28;20036;-83
2023/12/10 00:11:50;;;;;;;23.40;4.50;;;6.90;99.90;;;;;;5065494;28;20538;-83
2023/12/10 00:14:37;;;;;;;23.75;4.65;;;6.80;99.90;;;;;;5062820;28;20047;-83
2023/12/10 00:17:25;;;;;;;28.58;4.90;;;6.80;99.90;;;;;;5072288;28;20523;-83
2023/12/10 00:20:16;;;;;;;26.30;4.45;;;6.90;99.90;;;;;;5060247;28;20049;-83
2023/12/10 00:23:03;;;;;;;23.77;4.93;;;6.80;99.90;;;;;;5053865;28;20048;-84
2023/12/10 00:25:50;;;;;;;28.50;5.07;;;6.90;99.90;;;;;;5048486;28;20130;-85
2023/12/10 00:28:40;;;;;;;31.33;6.18;;;6.90;99.90;;;;;;5052284;28;20083;-85
2023/12/10 00:31:28;;;;;;;32.88;5.15;;;6.90;99.90;;;;;;5048637;28;20480;-85
2023/12/10 00:34:15;;;;;;;24.27;4.18;;;6.90;99.90;;;;;;5067565;28;20492;-84
2023/12/10 00:37:03;;;;;;;36.05;6.20;;;6.90;99.90;;;;;;5065827;28;20041;-82
2023/12/10 00:39:52;;;;;;;37.70;5.60;;;7.00;99.90;;;;;;5069208;28;20059;-81
2023/12/10 00:42:43;;;;;;;22.60;4.40;;;7.00;99.90;;;;;;5071870;28;20041;-85
2023/12/10 00:45:30;;;;;;;37.47;5.80;;;6.90;99.90;;;;;;5061387;28;20069;-84
2023/12/10 00:48:18;;;;;;;39.45;6.30;;;6.90;99.90;;;;;;5050315;28;20040;-83
2023/12/10 00:51:05;;;;;;;33.38;5.95;;;6.90;99.90;;;;;;5069934;28;20051;-83
2023/12/10 00:53:52;;;;;;;29.65;5.68;;;6.90;99.90;;;;;;5067160;28;20507;-86
2023/12/10 00:56:41;;;;;;;34.85;6.80;;;7.00;99.90;;;;;;5051282;28;20126;-83
2023/12/10 00:59:29;;;;;;;34.50;7.22;;;7.00;99.90;;;;;;5073899;28;20062;-83
2023/12/10 01:02:16;;;;;;;39.03;6.75;;;7.00;99.90;;;;;;5078494;28;20044;-83
2023/12/10 01:05:05;;;;;;;37.08;6.78;;;7.10;99.90;;;;;;5051505;28;20048;-84
2023/12/10 01:07:53;;;;;;;31.17;5.70;;;7.20;99.90;;;;;;5047352;28;20076;-84
2023/12/10 01:10:40;;;;;;;41.83;6.38;;;7.10;99.90;;;;;;5069592;28;20052;-84
2023/12/10 01:13:27;;;;;;;38.55;6.32;;;7.20;99.90;;;;;;5066409;28;20126;-84
2023/12/10 01:16:16;;;;;;;44.53;6.18;;;7.10;99.90;;;;;;5077942;28;20055;-83
2023/12/10 01:19:04;;;;;;;49.33;6.88;;;7.10;99.90;;;;;;5063092;28;20063;-83
2023/12/10 01:21:51;;;;;;;37.70;7.32;;;7.10;99.90;;;;;;5075786;28;20452;-81
2023/12/10 01:24:39;;;;;;;38.63;6.38;;;7.10;99.90;;;;;;5067931;28;20052;-86
2023/12/10 01:27:26;;;;;;;42.63;6.63;;;7.20;99.90;;;;;;5065352;28;20051;-84
2023/12/10 01:30:13;;;;;;;39.53;6.70;;;7.30;99.90;;;;;;5066365;28;20437;-83
2023/12/10 01:33:01;;;;;;;49.20;6.80;;;7.20;99.90;;;;;;5066635;28;20071;-84
2023/12/10 01:35:48;;;;;;;41.97;6.68;;;7.20;99.90;;;;;;5062904;28;20048;-83
2023/12/10 01:38:36;;;;;;;41.45;6.30;;;7.10;99.90;;;;;;5062895;28;20052;-82
2023/12/10 01:41:26;;;;;;;37.35;6.15;;;7.10;99.90;;;;;;5061692;28;20059;-82
2023/12/10 01:44:16;;;;;;;41.58;6.25;;;7.10;99.90;;;;;;5066370;28;20100;-83
2023/12/10 01:47:05;;;;;;;34.08;6.13;;;7.10;99.90;;;;;;5046236;28;20049;-83
2023/12/10 01:49:53;;;;;;;37.28;7.07;;;7.10;99.90;;;;;;5050386;28;20056;-83
2023/12/10 01:52:41;;;;;;;39.25;6.93;;;7.10;99.90;;;;;;5070190;28;20051;-84
2023/12/10 01:55:29;;;;;;;42.88;6.93;;;7.00;99.90;;;;;;5074690;28;20124;-83
2023/12/10 01:58:17;;;;;;;26.95;5.88;;;7.00;99.90;;;;;;5069708;28;20053;-84
2023/12/10 02:01:05;;;;;;;36.65;6.25;;;6.90;99.90;;;;;;5056809;28;20052;-84
2023/12/10 02:03:54;;;;;;;38.30;6.47;;;6.90;99.90;;;;;;5056582;28;20037;-84
2023/12/10 02:06:42;;;;;;;39.75;6.88;;;6.90;99.90;;;;;;5049872;28;20067;-79
2023/12/10 02:09:31;;;;;;;42.00;6.90;;;6.90;99.90;;;;;;5068596;28;20048;-83
2023/12/10 02:12:19;;;;;;;37.88;6.88;;;6.90;99.90;;;;;;5060616;28;20052;-84
2023/12/10 02:15:19;;;;;;;37.30;6.63;;;6.80;99.90;;;;;;5072688;28;20047;-83
2023/12/10 02:18:06;;;;;;;40.70;6.30;;;6.80;99.90;;;;;;5073918;28;20048;-80
2023/12/10 02:20:55;;;;;;;30.98;5.78;;;6.70;99.90;;;;;;5064026;28;20456;-83
2023/12/10 02:23:55;;;;;;;37.60;5.95;;;6.80;99.90;;;;;;5075441;28;20048;-83
2023/12/10 02:26:44;;;;;;;37.60;7.28;;;6.80;99.90;;;;;;5051698;28;20041;-82
2023/12/10 02:29:32;;;;;;;33.17;5.32;;;6.80;99.90;;;;;;5072699;28;20033;-84
2023/12/10 02:32:21;;;;;;;21.23;5.35;;;6.60;99.90;;;;;;5080473;28;20054;-83
2023/12/10 02:35:08;;;;;;;22.55;4.38;;;6.50;99.90;;;;;;5069519;28;20377;-84
2023/12/10 02:37:58;;;;;;;30.63;5.20;;;6.30;99.90;;;;;;5064338;28;20056;-86
2023/12/10 02:40:46;;;;;;;34.63;6.10;;;6.20;99.90;;;;;;5049903;28;20044;-84
2023/12/10 02:43:33;;;;;;;32.30;4.63;;;6.20;99.90;;;;;;5063325;28;20055;-86
2023/12/10 02:46:20;;;;;;;24.13;5.32;;;6.20;99.90;;;;;;5053917;28;20487;-85
2023/12/10 02:49:09;;;;;;;32.28;4.90;;;6.20;99.90;;;;;;5075663;28;20040;-85
2023/12/10 02:51:57;;;;;;;30.88;6.60;;;6.10;99.90;;;;;;5055953;28;20051;-85
2023/12/10 02:54:44;;;;;;;39.70;7.57;;;6.10;99.90;;;;;;5061250;28;20399;-86
2023/12/10 02:57:34;;;;;;;31.50;5.82;;;6.10;99.90;;;;;;5072500;28;20051;-82
2023/12/10 03:00:21;;;;;;;40.17;6.13;;;6.20;99.90;;;;;;5078566;28;20326;-86
2023/12/10 03:03:09;;;;;;;37.85;6.30;;;6.20;99.90;;;;;;5076510;28;20127;-85
2023/12/10 03:05:56;;;;;;;35.58;5.75;;;6.20;99.90;;;;;;5058467;28;20371;-86
2023/12/10 03:08:46;;;;;;;31.67;5.40;;;6.10;99.90;;;;;;5070773;28;20067;-86
2023/12/10 03:11:33;;;;;;;41.72;5.85;;;6.10;99.90;;;;;;5055706;28;20044;-85
2023/12/10 03:14:23;;;;;;;33.83;5.88;;;6.20;99.90;;;;;;5050687;28;20048;-84
2023/12/10 03:17:12;;;;;;;34.97;5.32;;;6.20;99.90;;;;;;5044387;28;20446;-85
2023/12/10 03:20:00;;;;;;;27.85;5.50;;;6.10;99.90;;;;;;5056800;28;20056;-86
2023/12/10 03:22:49;;;;;;;52.80;6.03;;;6.10;99.90;;;;;;5046251;28;20049;-85
2023/12/10 03:25:37;;;;;;;29.13;5.10;;;6.10;99.90;;;;;;5062378;28;20056;-85
2023/12/10 03:28:26;;;;;;;26.08;4.57;;;6.10;99.90;;;;;;5058105;28;20116;-85
2023/12/10 03:31:14;;;;;;;28.20;4.75;;;6.20;99.90;;;;;;5063989;28;20720;-84
2023/12/10 03:34:01;;;;;;;25.55;4.63;;;6.10;99.90;;;;;;5057990;28;20048;-82
2023/12/10 03:36:48;;;;;;;32.85;4.85;;;6.00;99.90;;;;;;5062449;28;20033;-81
2023/12/10 03:39:36;;;;;;;21.90;4.35;;;6.00;99.90;;;;;;5058407;28;20395;-86
2023/12/10 03:42:23;;;;;;;26.73;5.28;;;5.90;99.90;;;;;;5070447;28;20052;-82
2023/12/10 03:45:10;;;;;;;27.02;4.93;;;6.00;99.90;;;;;;5056735;28;20052;-85
2023/12/10 03:47:58;;;;;;;22.40;5.38;;;5.90;99.90;;;;;;5069042;28;20060;-84
2023/12/10 03:50:45;;;;;;;25.85;4.95;;;6.00;99.90;;;;;;5060743;28;20040;-85
2023/12/10 03:53:32;;;;;;;17.17;3.72;;;6.00;99.90;;;;;;5072017;28;20063;-84
2023/12/10 03:56:22;;;;;;;24.92;4.50;;;6.00;99.90;;;;;;5050349;28;20037;-84
2023/12/10 03:59:11;;;;;;;24.90;4.72;;;6.00;99.90;;;;;;5047653;28;20041;-84
2023/12/10 04:01:59;;;;;;;17.70;3.85;;;6.10;99.90;;;;;;5061169;28;20049;-85
2023/12/10 04:04:46;;;;;;;23.02;4.47;;;6.20;99.90;;;;;;5073281;28;20045;-83
2023/12/10 04:07:33;;;;;;;20.58;4.15;;;6.20;99.90;;;;;;5072734;28;20044;-84
2023/12/10 04:10:20;;;;;;;27.33;4.43;;;6.20;99.90;;;;;;5070626;28;20048;-85
2023/12/10 04:13:12;;;;;;;27.35;4.93;;;6.20;99.90;;;;;;5078331;28;20036;-85
2023/12/10 04:16:02;;;;;;;35.95;5.35;;;6.30;99.90;;;;;;5053471;28;20041;-83
2023/12/10 04:18:49;;;;;;;26.63;4.68;;;6.40;99.90;;;;;;5062073;28;20348;-81
2023/12/10 04:21:37;;;;;;;25.23;4.20;;;6.40;99.90;;;;;;5068055;28;20148;-83
2023/12/10 04:24:26;;;;;;;23.35;4.40;;;6.50;99.90;;;;;;5061688;28;20056;-84
2023/12/10 04:27:14;;;;;;;18.75;3.88;;;6.50;99.90;;;;;;5051415;28;20053;-80
2023/12/10 04:30:01;;;;;;;22.80;5.07;;;6.60;99.90;;;;;;5069560;28;20049;-84
2023/12/10 04:32:50;;;;;;;27.90;4.63;;;6.60;99.90;;;;;;5059072;28;20127;-85
2023/12/10 04:35:40;;;;;;;21.50;4.57;;;6.60;99.90;;;;;;5064690;28;20076;-84
2023/12/10 04:38:28;;;;;;;24.95;4.75;;;6.60;99.90;;;;;;5065162;28;20053;-85
2023/12/10 04:41:15;;;;;;;33.38;4.60;;;6.60;99.90;;;;;;5048535;28;20056;-84
2023/12/10 04:44:05;;;;;;;26.38;4.57;;;6.60;99.90;;;;;;5070967;28;20384;-85
2023/12/10 04:46:53;;;;;;;22.85;4.43;;;6.60;99.90;;;;;;5069637;28;20118;-86
2023/12/10 04:49:41;;;;;;;20.30;4.35;;;6.50;99.90;;;;;;5066601;28;20044;-83
2023/12/10 04:52:29;;;;;;;20.98;4.00;;;6.60;99.90;;;;;;5059028;28;20179;-83
2023/12/10 04:55:19;;;;;;;26.58;4.57;;;6.50;99.90;;;;;;5066654;28;20083;-83
2023/12/10 04:58:07;;;;;;;20.90;4.22;;;6.40;99.90;;;;;;5067965;28;20044;-84
2023/12/10 05:00:57;;;;;;;19.88;3.60;;;6.40;99.90;;;;;;5055561;28;20395;-84
2023/12/10 05:03:46;;;;;;;25.90;4.85;;;6.40;99.90;;;;;;5085128;28;20075;-82
2023/12/10 05:06:34;;;;;;;19.50;3.60;;;6.30;99.90;;;;;;5055515;28;20057;-85
2023/12/10 05:09:21;;;;;;;20.25;4.45;;;6.40;99.90;;;;;;5059650;28;20041;-85
2023/12/10 05:12:08;;;;;;;23.65;4.40;;;6.40;99.90;;;;;;5063649;28;20117;-81
2023/12/10 05:14:56;;;;;;;26.15;4.47;;;6.30;99.90;;;;;;5055918;28;20051;-84
2023/12/10 05:17:45;;;;;;;25.63;5.22;;;6.30;99.90;;;;;;5064035;28;20059;-86
2023/12/10 05:20:34;;;;;;;29.42;4.22;;;6.40;99.90;;;;;;5052945;28;20037;-84
2023/12/10 05:23:21;;;;;;;23.90;4.47;;;6.40;99.90;;;;;;5067425;28;20460;-83
2023/12/10 05:26:08;;;;;;;24.73;5.20;;;6.30;99.90;;;;;;5063894;28;20055;-83
2023/12/10 05:28:55;;;;;;;23.58;4.53;;;6.30;99.90;;;;;;5066727;28;20399;-83
2023/12/10 05:31:45;;;;;;;21.48;3.83;;;6.30;99.90;;;;;;5052713;28;20047;-83
2023/12/10 05:34:35;;;;;;;26.10;4.35;;;6.30;99.90;;;;;;5048308;28;20088;-84
2023/12/10 05:37:24;;;;;;;24.30;5.30;;;6.50;99.90;;;;;;5072025;28;20044;-79
2023/12/10 05:40:12;;;;;;;24.25;4.57;;;6.40;99.90;;;;;;5070152;28;20467;-79
2023/12/10 05:42:59;;;;;;;23.73;4.43;;;6.40;99.90;;;;;;5073660;28;20040;-84
2023/12/10 05:45:49;;;;;;;26.45;4.78;;;6.40;99.90;;;;;;5064109;28;20037;-81
2023/12/10 05:48:36;;;;;;;19.33;4.28;;;6.40;99.90;;;;;;5073898;28;20451;-80
2023/12/10 05:51:24;;;;;;;17.98;4.43;;;6.40;99.90;;;;;;5055996;28;20049;-83
2023/12/10 05:54:11;;;;;;;22.90;3.97;;;6.50;99.90;;;;;;5059277;28;20043;-83
2023/12/10 05:56:59;;;;;;;26.33;4.13;;;6.40;99.90;;;;;;5065805;28;20045;-83
2023/12/10 05:59:46;;;;;;;26.15;4.00;;;6.30;99.90;;;;;;5059499;28;20191;-84
2023/12/10 06:02:34;;;;;;;24.90;4.22;;;6.30;99.90;;;;;;5053858;28;20377;-83
2023/12/10 06:05:21;;;;;;;27.55;4.93;;;6.30;99.90;;;;;;5066656;28;20067;-85
2023/12/10 06:08:09;;;;;;;22.55;3.55;;;6.30;99.90;;;;;;5076475;28;20052;-84
2023/12/10 06:10:57;;;;;;;22.88;4.13;;;6.30;99.90;;;;;;5060842;28;20459;-84
2023/12/10 06:13:46;;;;;;;16.70;3.83;;;6.20;99.90;;;;;;5078565;28;20045;-84
2023/12/10 06:16:34;;;;;;;23.40;4.22;;;6.10;99.90;;;;;;5068229;28;20049;-84
2023/12/10 06:19:23;;;;;;;19.40;4.00;;;6.10;99.90;;;;;;5077669;28;20051;-83
2023/12/10 06:22:11;;;;;;;22.63;3.92;;;6.10;99.90;;;;;;5068017;28;20040;-81
2023/12/10 06:24:58;;;;;;;24.42;3.70;;;6.00;99.90;;;;;;5066863;28;20116;-84
2023/12/10 06:27:46;;;;;;;25.35;3.35;;;6.00;99.90;;;;;;5052612;28;20045;-85
2023/12/10 06:30:33;;;;;;;30.13;4.03;;;6.00;99.90;;;;;;5070499;28;20058;-81
2023/12/10 06:33:20;;;;;;;19.50;3.85;;;5.90;99.90;;;;;;5061333;28;20068;-86
2023/12/10 06:36:08;;;;;;;25.65;3.83;;;5.90;99.90;;;;;;5075545;28;20052;-83
2023/12/10 06:39:00;;;;;;;20.00;3.60;;;5.80;99.90;;;;;;5073817;28;20443;-83
2023/12/10 06:41:47;;;;;;;24.38;4.55;;;5.80;99.90;;;;;;5058727;28;20041;-85
2023/12/10 06:44:36;;;;;;;22.98;4.30;;;5.80;99.90;;;;;;5070250;28;20048;-83
2023/12/10 06:47:25;;;;;;;20.73;4.57;;;5.80;99.90;;;;;;5082509;28;20048;-86
2023/12/10 06:50:13;;;;;;;29.05;4.07;;;5.90;99.90;;;;;;5059430;28;20044;-84
2023/12/10 06:53:00;;;;;;;27.13;4.03;;;5.90;99.90;;;;;;5065255;28;20113;-83
2023/12/10 06:55:48;;;;;;;28.02;3.92;;;5.90;99.90;;;;;;5050888;28;20041;-83
2023/12/10 06:58:38;;;;;;;26.92;4.53;;;5.90;99.90;;;;;;5057036;28;20366;-84
2023/12/10 07:01:29;;;;;;;18.33;3.55;;;5.90;99.90;;;;;;5067291;28;20063;-83
2023/12/10 07:04:18;;;;;;;17.77;4.10;;;6.00;99.90;;;;;;5062632;28;20032;-84
2023/12/10 07:07:05;;;;;;;20.45;4.03;;;6.00;99.90;;;;;;5053980;28;20454;-80
2023/12/10 07:09:53;;;;;;;26.48;4.88;;;6.00;99.90;;;;;;5074144;28;20072;-85
2023/12/10 07:12:40;;;;;;;16.85;4.07;;;5.90;99.90;;;;;;5066454;28;20045;-84
2023/12/10 07:15:29;;;;;;;25.35;4.47;;;5.90;99.90;;;;;;5071857;28;20055;-85
2023/12/10 07:18:19;;;;;;;27.65;5.22;;;5.90;99.90;;;;;;5061216;28;20186;-85
2023/12/10 07:21:07;;;;;;;23.40;4.20;;;5.90;99.90;;;;;;5074349;28;20067;-84
2023/12/10 07:23:54;;;;;;;22.33;3.75;;;6.00;99.90;;;;;;5070170;28;20139;-84
2023/12/10 07:26:41;;;;;;;23.80;4.10;;;6.00;99.90;;;;;;5063960;28;20052;-84
2023/12/10 07:29:28;;;;;;;24.83;5.00;;;6.00;99.90;;;;;;5068372;28;20051;-85
2023/12/10 07:32:18;;;;;;;25.95;5.03;;;6.10;99.90;;;;;;5063403;28;20060;-85
2023/12/10 07:35:05;;;;;;;18.95;3.78;;;6.10;99.90;;;;;;5068068;28;20449;-84
2023/12/10 07:37:54;;;;;;;20.60;4.57;;;6.20;99.90;;;;;;5066055;28;20056;-85
2023/12/10 07:40:43;;;;;;;22.02;5.50;;;6.20;99.90;;;;;;5053845;28;20377;-85
2023/12/10 07:43:31;;;;;;;24.45;5.88;;;6.20;99.90;;;;;;5071945;28;20051;-84
2023/12/10 07:46:18;;;;;;;24.45;5.13;;;6.20;99.90;;;;;;5062502;28;20142;-83
2023/12/10 07:49:06;;;;;;;18.80;4.18;;;6.30;99.90;;;;;;5048595;28;20073;-81
2023/12/10 07:51:53;;;;;;;21.20;4.32;;;6.30;99.90;;;;;;5055815;28;20044;-78
2023/12/10 07:54:41;;;;;;;19.98;4.35;;;6.30;99.90;;;;;;5069801;28;20412;-83
2023/12/10 07:57:31;;;;;;;25.25;4.85;;;6.30;99.90;;;;;;5065125;28;20088;-82
2023/12/10 08:00:21;;;;;;;21.92;3.85;;;6.30;99.90;;;;;;5055062;28;20100;-82
2023/12/10 08:03:11;;;;;;;22.25;4.60;;;6.30;99.90;;;;;;5067101;28;20137;-83
2023/12/10 08:05:58;;;;;;;22.50;3.92;;;6.40;99.90;;;;;;5077768;28;20047;-82
2023/12/10 08:08:46;;;;;;;18.05;4.30;;;6.40;99.90;;;;;;5065687;28;20041;-83
2023/12/10 08:11:34;;;;;;;17.88;3.25;;;6.40;99.90;;;;;;5067375;28;20340;-83
2023/12/10 08:14:26;;;;;;;24.52;5.18;;;6.40;99.90;;;;;;5080236;28;20147;-83
2023/12/10 08:17:15;;;;;;;22.92;5.05;;;6.50;99.90;;;;;;5072728;28;20362;-84
2023/12/10 08:20:03;;;;;;;28.00;5.40;;;6.60;99.90;;;;;;5069453;28;20144;-83
2023/12/10 08:22:51;;;;;;;27.02;4.95;;;6.60;99.90;;;;;;5064117;28;20040;-81
2023/12/10 08:25:38;;;;;;;20.52;4.20;;;6.60;99.90;;;;;;5075283;28;20098;-85
2023/12/10 08:28:25;;;;;;;26.52;4.22;;;6.60;99.90;;;;;;5074133;28;20140;-83
2023/12/10 08:31:13;;;;;;;20.88;6.25;;;6.80;99.90;;;;;;5071991;28;20060;-83
2023/12/10 08:34:01;;;;;;;23.38;4.10;;;7.00;99.90;;;;;;5068532;28;20132;-84
2023/12/10 08:36:48;;;;;;;20.83;4.18;;;7.20;99.90;;;;;;5067587;28;20484;-80
2023/12/10 08:39:38;;;;;;;19.45;3.65;;;7.50;99.90;;;;;;5071800;28;20473;-82
2023/12/10 08:42:27;;;;;;;19.98;4.25;;;7.60;99.90;;;;;;5057036;28;20356;-84
2023/12/10 08:45:22;;;;;;;24.05;4.88;;;7.60;99.90;;;;;;5061037;28;20102;-83
2023/12/10 08:48:10;;;;;;;22.63;4.03;;;7.60;99.90;;;;;;5078081;28;20048;-83
2023/12/10 08:50:57;;;;;;;16.88;3.67;;;7.80;99.90;;;;;;5065760;28;20045;-84
2023/12/10 08:53:45;;;;;;;17.40;3.67;;;7.80;99.90;;;;;;5063386;28;20051;-85
2023/12/10 08:56:33;;;;;;;25.92;4.30;;;7.90;99.90;;;;;;5062117;28;20055;-84
2023/12/10 08:59:21;;;;;;;21.63;4.72;;;7.80;99.90;;;;;;5071898;28;20049;-83
2023/12/10 09:02:08;;;;;;;27.10;4.82;;;7.90;99.90;;;;;;5054187;28;20044;-86
2023/12/10 09:04:55;;;;;;;19.67;4.43;;;8.00;99.90;;;;;;5063482;28;20048;-84
2023/12/10 09:07:43;;;;;;;20.13;4.25;;;8.10;99.90;;;;;;5067228;28;20068;-85
2023/12/10 09:10:32;;;;;;;21.10;4.78;;;8.10;99.90;;;;;;5066983;28;20064;-82
2023/12/10 09:13:24;;;;;;;19.23;3.80;;;8.10;99.90;;;;;;5066364;28;20041;-84
2023/12/10 09:16:17;;;;;;;17.10;3.85;;;7.90;99.90;;;;;;5058671;28;20386;-84
2023/12/10 09:19:05;;;;;;;22.98;4.55;;;8.00;99.90;;;;;;5060534;28;20371;-81
2023/12/10 09:21:52;;;;;;;17.88;3.25;;;8.10;99.90;;;;;;5070388;28;20074;-84
2023/12/10 09:24:40;;;;;;;18.40;3.38;;;8.20;99.90;;;;;;5060332;28;20116;-84
2023/12/10 09:27:27;;;;;;;24.42;3.85;;;8.40;99.90;;;;;;5048631;28;20056;-80
2023/12/10 09:30:20;;;;;;;18.20;3.75;;;8.30;99.90;;;;;;5064867;28;20047;-84
2023/12/10 09:33:10;;;;;;;14.27;3.28;;;8.30;99.90;;;;;;5057418;28;20048;-83
2023/12/10 09:35:58;;;;;;;15.05;3.45;;;8.80;99.90;;;;;;5075515;28;20036;-86
2023/12/10 09:38:45;;;;;;;15.32;3.35;;;9.30;99.90;;;;;;5067417;28;20110;-86
2023/12/10 09:41:32;;;;;;;27.77;3.72;;;9.40;99.90;;;;;;5057182;28;20047;-84
2023/12/10 09:44:20;;;;;;;15.75;2.97;;;9.60;99.90;;;;;;5070212;28;20052;-85
2023/12/10 09:47:14;;;;;;;17.73;3.58;;;9.70;99.90;;;;;;5066943;28;20048;-85
2023/12/10 09:50:03;;;;;;;19.67;3.83;;;10.00;99.90;;;;;;5067852;28;20106;-85
2023/12/10 09:52:54;;;;;;;17.35;3.47;;;10.50;99.90;;;;;;5073002;28;20068;-85
2023/12/10 09:55:42;;;;;;;19.73;3.67;;;10.30;99.90;;;;;;5069521;28;20159;-83
2023/12/10 09:58:29;;;;;;;12.05;3.35;;;10.20;99.90;;;;;;5066217;28;20049;-84
2023/12/10 10:01:19;;;;;;;11.65;2.63;;;10.70;99.90;;;;;;5063318;28;20044;-83
2023/12/10 10:04:06;;;;;;;14.57;2.92;;;11.70;99.90;;;;;;5075966;28;20440;-86
2023/12/10 10:06:55;;;;;;;7.32;2.22;;;12.10;1.00;;;;;;5058910;28;20048;-85
2023/12/10 10:09:44;;;;;;;14.52;2.58;;;11.70;1.00;;;;;;5052827;28;20055;-85
2023/12/10 10:12:33;;;;;;;10.18;3.28;;;10.50;1.00;;;;;;5070218;28;20303;-85
2023/12/10 10:15:33;;;;;;;16.23;3.30;;;10.10;1.00;;;;;;5077802;28;20190;-85
2023/12/10 10:18:22;;;;;;;14.32;2.80;;;9.80;1.00;;;;;;5066622;28;20037;-83
2023/12/10 10:21:10;;;;;;;13.70;3.05;;;8.90;1.00;;;;;;5068658;28;20057;-83
2023/12/10 10:23:58;;;;;;;11.45;2.55;;;8.40;1.00;;;;;;5066197;28;20460;-86
2023/12/10 10:26:45;;;;;;;13.82;2.85;;;8.00;1.00;;;;;;5069405;28;20040;-84
2023/12/10 10:29:33;;;;;;;18.35;3.85;;;7.70;99.90;;;;;;5065718;28;20067;-84
2023/12/10 10:32:23;;;;;;;18.35;2.95;;;7.70;99.90;;;;;;5073736;28;20045;-85
2023/12/10 10:35:12;;;;;;;13.93;3.15;;;7.60;99.90;;;;;;5068953;28;20510;-86
2023/12/10 10:38:02;;;;;;;20.08;4.10;;;7.50;99.90;;;;;;5047262;28;20044;-85
2023/12/10 10:40:54;;;;;;;20.77;3.50;;;7.50;99.90;;;;;;5060681;28;20084;-83
2023/12/10 10:43:41;;;;;;;16.55;4.35;;;7.50;99.90;;;;;;5067718;28;20048;-84
2023/12/10 10:46:30;;;;;;;15.82;2.92;;;7.40;99.90;;;;;;5073940;28;20045;-88
2023/12/10 10:49:17;;;;;;;14.43;3.03;;;7.40;99.90;;;;;;5078117;28;20141;-82
2023/12/10 10:52:10;;;;;;;13.48;2.83;;;7.40;99.90;;;;;;5060166;28;20044;-85
2023/12/10 10:55:02;;;;;;;11.63;3.20;;;7.40;1.00;;;;;;5075423;28;20051;-84
2023/12/10 10:57:49;;;;;;;14.48;3.75;;;7.40;1.00;;;;;;5068289;28;20053;-84
2023/12/10 11:00:40;;;;;;;21.77;3.65;;;7.40;1.00;;;;;;5063532;28;20063;-79
2023/12/10 11:03:30;;;;;;;12.02;3.47;;;7.60;1.00;;;;;;5065881;28;20049;-81
2023/12/10 11:06:18;;;;;;;21.10;3.97;;;7.50;1.00;;;;;;5075992;28;20609;-85
2023/12/10 11:09:05;;;;;;;22.33;5.05;;;7.50;1.00;;;;;;5068810;28;20037;-88
2023/12/10 11:11:55;;;;;;;16.85;4.10;;;7.40;82.40;;;;;;5066900;28;20404;-85
2023/12/10 11:14:45;;;;;;;23.25;4.20;;;7.30;99.90;;;;;;5056902;28;20323;-87
2023/12/10 11:17:37;;;;;;;15.85;3.47;;;7.20;99.90;;;;;;5082549;28;20432;-83
2023/12/10 11:20:42;;;;;;;16.38;3.65;;;7.20;99.90;;;;;;5059498;28;20389;-86
2023/12/10 11:23:29;;;;;;;16.95;4.15;;;7.30;1.00;;;;;;5085082;28;20460;-86
2023/12/10 11:26:19;;;;;;;24.70;4.13;;;7.30;1.00;;;;;;5055775;28;20179;-84
2023/12/10 11:29:09;;;;;;;17.17;4.22;;;7.30;99.90;;;;;;5069263;28;20054;-84
2023/12/10 11:31:59;;;;;;;21.38;3.92;;;7.30;1.00;;;;;;5075556;28;20048;-85
2023/12/10 11:34:47;;;;;;;17.38;5.35;;;7.40;1.00;;;;;;5072170;28;20123;-87
2023/12/10 11:37:35;;;;;;;22.95;4.65;;;7.30;1.00;;;;;;5064871;28;20033;-88
2023/12/10 11:40:25;;;;;;;21.60;4.85;;;7.30;1.00;;;;;;5064115;28;20124;-87
2023/12/10 11:43:12;;;;;;;17.23;4.00;;;7.30;1.00;;;;;;5062267;28;20043;-86
2023/12/10 11:46:02;;;;;;;21.42;4.53;;;7.30;99.90;;;;;;5052092;28;20054;-86
2023/12/10 11:48:50;;;;;;;26.05;5.13;;;7.20;99.90;;;;;;5055222;28;20055;-86
2023/12/10 11:51:41;;;;;;;11.93;4.07;;;7.20;99.90;;;;;;5079801;28;20360;-81
2023/12/10 11:54:28;;;;;;;23.45;4.50;;;7.30;1.00;;;;;;5077528;28;20040;-87
2023/12/10 11:57:21;;;;;;;18.27;3.58;;;7.30;99.90;;;;;;5058338;28;20041;-84
2023/12/10 12:00:11;;;;;;;17.05;4.10;;;7.40;99.90;;;;;;5065543;28;20123;-85
2023/12/10 12:03:01;;;;;;;22.70;4.93;;;7.50;99.90;;;;;;5069434;28;20044;-86
2023/12/10 12:05:54;;;;;;;17.52;3.63;;;7.60;99.90;;;;;;5072180;28;20037;-85
2023/12/10 12:08:42;;;;;;;16.40;3.30;;;7.70;99.90;;;;;;5068917;28;20056;-83
2023/12/10 12:11:29;;;;;;;15.93;3.85;;;7.70;88.10;;;;;;5052170;28;20040;-85
2023/12/10 12:14:21;;;;;;;14.52;3.20;;;7.80;4.90;;;;;;5076994;28;20070;-86
2023/12/10 12:17:08;;;;;;;17.63;3.92;;;7.90;1.00;;;;;;5053480;28;20425;-84
2023/12/10 12:20:18;;;;;;;17.55;4.43;;;8.10;1.00;;;;;;5072335;28;20044;-83
2023/12/10 12:23:06;;;;;;;17.95;3.20;;;8.00;1.00;;;;;;5065831;28;20045;-85
2023/12/10 12:25:53;;;;;;;18.33;3.38;;;8.10;1.00;;;;;;5068160;28;20052;-84
2023/12/10 12:28:40;;;;;;;21.92;3.40;;;8.00;1.00;;;;;;5059882;28;20050;-86
2023/12/10 12:31:31;;;;;;;18.65;3.80;;;8.10;99.90;;;;;;5050231;28;20048;-83
2023/12/10 12:34:18;;;;;;;26.27;4.35;;;8.00;99.90;;;;;;5051822;28;20103;-82
2023/12/10 12:37:06;;;;;;;16.85;3.90;;;8.00;99.90;;;;;;5060991;28;20048;-81
2023/12/10 12:39:55;;;;;;;19.40;3.63;;;8.00;99.90;;;;;;5071631;28;20045;-84
2023/12/10 12:42:44;;;;;;;15.27;3.20;;;8.00;99.90;;;;;;5072775;28;20075;-85
2023/12/10 12:45:31;;;;;;;17.25;2.90;;;7.90;99.90;;;;;;5064034;28;20168;-82
2023/12/10 12:48:19;;;;;;;11.55;3.00;;;7.90;99.90;;;;;;5070094;28;20041;-85
2023/12/10 12:51:07;;;;;;;16.20;3.70;;;7.80;99.90;;;;;;5074451;28;20040;-85
2023/12/10 12:53:55;;;;;;;15.30;3.30;;;7.80;99.90;;;;;;5072931;28;20045;-85
2023/12/10 12:56:59;;;;;;;14.40;3.53;;;7.80;99.90;;;;;;5063618;28;20040;-84
2023/12/10 12:59:47;;;;;;;15.00;2.80;;;7.80;99.90;;;;;;5071472;28;20351;-85
2023/12/10 13:02:34;;;;;;;12.93;3.53;;;7.80;99.90;;;;;;5061090;28;20052;-84
2023/12/10 13:05:23;;;;;;;12.05;3.03;;;7.80;99.90;;;;;;5063313;28;20114;-85
2023/12/10 13:08:12;;;;;;;13.43;2.80;;;7.80;99.90;;;;;;5071378;28;20047;-84
2023/12/10 13:11:02;;;;;;;19.33;3.75;;;7.80;99.90;;;;;;5051375;28;20045;-85
2023/12/10 13:13:54;;;;;;;11.40;2.78;;;7.80;99.90;;;;;;5068194;28;20032;-84
2023/12/10 13:16:44;;;;;;;11.67;3.60;;;7.80;99.90;;;;;;5056625;28;20044;-84
2023/12/10 13:19:32;;;;;;;16.40;3.47;;;7.90;99.90;;;;;;5064908;28;20473;-85
2023/12/10 13:22:22;;;;;;;13.88;3.33;;;7.90;99.90;;;;;;5061248;28;20052;-85
2023/12/10 13:25:10;;;;;;;14.32;3.28;;;7.90;99.90;;;;;;5061698;28;20476;-79
2023/12/10 13:27:57;;;;;;;17.73;3.75;;;7.90;99.90;;;;;;5059486;28;20386;-84
2023/12/10 13:30:45;;;;;;;18.92;3.58;;;7.90;99.90;;;;;;5065393;28;20389;-84
2023/12/10 13:33:33;;;;;;;14.82;3.13;;;7.80;99.90;;;;;;5055137;28;20033;-84
2023/12/10 13:36:21;;;;;;;10.88;3.50;;;7.80;99.90;;;;;;5052258;28;20153;-81
2023/12/10 13:39:09;;;;;;;14.15;3.13;;;7.80;99.90;;;;;;5064721;28;20041;-83
2023/12/10 13:41:57;;;;;;;17.25;3.58;;;7.80;99.90;;;;;;5067693;28;20056;-84
2023/12/10 13:44:45;;;;;;;10.35;2.83;;;7.80;99.90;;;;;;5072247;28;20047;-83
2023/12/10 13:47:34;;;;;;;15.45;3.58;;;7.80;99.90;;;;;;5067861;28;20055;-84
2023/12/10 13:50:22;;;;;;;17.15;3.10;;;7.80;99.90;;;;;;5057511;28;20041;-86
2023/12/10 13:53:10;;;;;;;18.38;3.55;;;7.80;99.90;;;;;;5072627;28;20416;-85
2023/12/10 13:55:57;;;;;;;15.82;3.42;;;7.80;99.90;;;;;;5064062;28;20102;-85
2023/12/10 13:58:44;;;;;;;13.68;3.28;;;7.80;99.90;;;;;;5058326;28;20110;-85
2023/12/10 14:01:35;;;;;;;9.25;2.70;;;7.80;99.90;;;;;;5067210;28;20063;-85
2023/12/10 14:04:23;;;;;;;12.35;3.17;;;7.80;99.90;;;;;;5070767;28;20060;-86
2023/12/10 14:07:11;;;;;;;18.48;3.63;;;7.80;99.90;;;;;;5080644;28;20044;-87
2023/12/10 14:10:00;;;;;;;17.05;3.60;;;7.80;99.90;;;;;;5047839;28;20473;-82
2023/12/10 14:12:52;;;;;;;13.93;3.38;;;7.70;99.90;;;;;;5067397;28;20060;-82
2023/12/10 14:15:40;;;;;;;12.65;3.47;;;7.70;99.90;;;;;;5055025;28;20167;-84
2023/12/10 14:18:28;;;;;;;18.42;3.78;;;7.70;99.90;;;;;;5066427;28;20044;-81
2023/12/10 14:21:16;;;;;;;10.48;3.03;;;7.70;99.90;;;;;;5050752;28;20376;-81
2023/12/10 14:24:17;;;;;;;20.08;4.10;;;7.70;99.90;;;;;;5054813;28;20445;-80
2023/12/10 14:27:15;;;;;;;19.77;4.47;;;7.70;99.90;;;;;;5073602;28;20081;-83
2023/12/10 14:30:03;;;;;;;23.17;7.07;;;7.70;99.90;;;;;;5067313;28;20037;-83
2023/12/10 14:32:54;;;;;;;17.38;5.10;;;7.60;99.90;;;;;;5059447;28;20051;-82
2023/12/10 14:35:42;;;;;;;15.70;3.85;;;7.70;99.90;;;;;;5046466;28;20087;-83
2023/12/10 14:38:29;;;;;;;18.83;5.55;;;7.60;99.90;;;;;;5055940;28;20129;-83